sensor_id;sensor_type;location;lat;lon;timestamp;P1;durP1;ratioP1;P2;durP2;ratioP2
3004;SDS011;1512;51.486;6.610;2023-02-05T00:02:32;23.13;;;11.80;;
3004;SDS011;1512;51.486;6.610;2023-02-05T00:06:40;15.63;;;11.30;;
3004;SDS011;1512;51.486;6.610;2023-02-05T00:10:52;18.83;;;11.20;;
3004;SDS011;1512;51.486;6.610;2023-02-05T00:15:01;20.60;;;12.77;;
3004;SDS011;1512;51.486;6.610;2023-02-05T00:19:09;25.60;;;12.00;;
3004;SDS011;1512;51.486;6.610;2023-02-05T00:23:18;29.00;;;11.53;;
3004;SDS011;1512;51.486;6.610;2023-02-05T00:27:27;16.43;;;11.30;;
3004;SDS011;1512;51.486;6.610;2023-02-05T00:31:35;21.50;;;11.77;;
3004;SDS011;1512;51.486;6.610;2023-02-05T00:35:44;22.30;;;11.53;;
3004;SDS011;1512;51.486;6.610;2023-02-05T00:39:52;20.47;;;10.77;;
3004;SDS011;1512;51.486;6.610;2023-02-05T00:44:01;22.87;;;10.07;;
3004;SDS011;1512;51.486;6.610;2023-02-05T00:48:10;19.10;;;9.77;;
3004;SDS011;1512;51.486;6.610;2023-02-05T00:52:18;24.20;;;9.80;;
3004;SDS011;1512;51.486;6.610;2023-02-05T00:56:27;20.60;;;11.03;;
3004;SDS011;1512;51.486;6.610;2023-02-05T01:00:36;17.90;;;9.30;;
3004;SDS011;1512;51.486;6.610;2023-02-05T01:04:45;21.37;;;8.97;;
3004;SDS011;1512;51.486;6.610;2023-02-05T01:08:53;17.93;;;8.87;;
3004;SDS011;1512;51.486;6.610;2023-02-05T01:13:02;26.27;;;9.07;;
3004;SDS011;1512;51.486;6.610;2023-02-05T01:17:12;15.23;;;9.13;;
3004;SDS011;1512;51.486;6.610;2023-02-05T01:21:21;18.10;;;9.23;;
3004;SDS011;1512;51.486;6.610;2023-02-05T01:25:30;15.60;;;9.33;;
3004;SDS011;1512;51.486;6.610;2023-02-05T01:29:39;22.77;;;9.33;;
3004;SDS011;1512;51.486;6.610;2023-02-05T01:33:48;12.67;;;9.60;;
3004;SDS011;1512;51.486;6.610;2023-02-05T01:37:57;14.83;;;9.33;;
3004;SDS011;1512;51.486;6.610;2023-02-05T01:42:10;28.70;;;10.17;;
3004;SDS011;1512;51.486;6.610;2023-02-05T01:46:25;18.47;;;8.17;;
3004;SDS011;1512;51.486;6.610;2023-02-05T01:50:39;16.10;;;9.17;;
3004;SDS011;1512;51.486;6.610;2023-02-05T01:54:55;15.20;;;8.90;;
3004;SDS011;1512;51.486;6.610;2023-02-05T01:59:08;21.60;;;9.70;;
3004;SDS011;1512;51.486;6.610;2023-02-05T02:03:19;15.30;;;9.97;;
3004;SDS011;1512;51.486;6.610;2023-02-05T02:07:29;14.30;;;8.47;;
3004;SDS011;1512;51.486;6.610;2023-02-05T02:11:39;24.77;;;10.00;;
3004;SDS011;1512;51.486;6.610;2023-02-05T02:15:49;16.57;;;9.00;;
3004;SDS011;1512;51.486;6.610;2023-02-05T02:20:03;11.67;;;8.50;;
3004;SDS011;1512;51.486;6.610;2023-02-05T02:24:27;17.53;;;8.87;;
3004;SDS011;1512;51.486;6.610;2023-02-05T02:28:34;24.67;;;11.00;;
3004;SDS011;1512;51.486;6.610;2023-02-05T02:41:25;21.17;;;8.23;;
3004;SDS011;1512;51.486;6.610;2023-02-05T02:45:41;28.17;;;9.97;;
3004;SDS011;1512;51.486;6.610;2023-02-05T02:49:59;18.93;;;9.00;;
3004;SDS011;1512;51.486;6.610;2023-02-05T02:54:05;18.17;;;8.63;;
3004;SDS011;1512;51.486;6.610;2023-02-05T02:58:18;14.83;;;8.70;;
3004;SDS011;1512;51.486;6.610;2023-02-05T03:02:33;22.37;;;9.70;;
3004;SDS011;1512;51.486;6.610;2023-02-05T03:06:44;18.13;;;9.27;;
3004;SDS011;1512;51.486;6.610;2023-02-05T03:11:05;16.63;;;8.20;;
3004;SDS011;1512;51.486;6.610;2023-02-05T03:15:15;22.33;;;10.03;;
3004;SDS011;1512;51.486;6.610;2023-02-05T03:19:24;19.37;;;10.13;;
3004;SDS011;1512;51.486;6.610;2023-02-05T03:23:32;13.53;;;9.27;;
3004;SDS011;1512;51.486;6.610;2023-02-05T03:27:41;19.27;;;11.47;;
3004;SDS011;1512;51.486;6.610;2023-02-05T03:31:56;21.17;;;10.50;;
3004;SDS011;1512;51.486;6.610;2023-02-05T03:36:24;21.00;;;10.87;;
3004;SDS011;1512;51.486;6.610;2023-02-05T03:49:26;31.10;;;13.43;;
3004;SDS011;1512;51.486;6.610;2023-02-05T03:53:48;26.57;;;14.03;;
3004;SDS011;1512;51.486;6.610;2023-02-05T03:58:01;35.50;;;15.47;;
3004;SDS011;1512;51.486;6.610;2023-02-05T04:02:11;41.87;;;14.67;;
3004;SDS011;1512;51.486;6.610;2023-02-05T04:06:20;29.87;;;14.77;;
3004;SDS011;1512;51.486;6.610;2023-02-05T04:10:30;29.30;;;15.63;;
3004;SDS011;1512;51.486;6.610;2023-02-05T04:14:38;35.80;;;15.37;;
3004;SDS011;1512;51.486;6.610;2023-02-05T04:18:47;30.70;;;16.37;;
3004;SDS011;1512;51.486;6.610;2023-02-05T04:22:55;30.73;;;14.13;;
3004;SDS011;1512;51.486;6.610;2023-02-05T04:27:04;34.00;;;16.33;;
3004;SDS011;1512;51.486;6.610;2023-02-05T04:31:13;30.83;;;15.90;;
3004;SDS011;1512;51.486;6.610;2023-02-05T04:35:21;27.70;;;15.27;;
3004;SDS011;1512;51.486;6.610;2023-02-05T04:39:30;27.77;;;13.93;;
3004;SDS011;1512;51.486;6.610;2023-02-05T04:43:38;28.10;;;13.00;;
3004;SDS011;1512;51.486;6.610;2023-02-05T04:47:47;38.40;;;15.83;;
3004;SDS011;1512;51.486;6.610;2023-02-05T04:51:56;29.13;;;15.17;;
3004;SDS011;1512;51.486;6.610;2023-02-05T04:56:05;33.93;;;15.60;;
3004;SDS011;1512;51.486;6.610;2023-02-05T05:00:15;26.03;;;16.10;;
3004;SDS011;1512;51.486;6.610;2023-02-05T05:04:24;28.20;;;15.70;;
3004;SDS011;1512;51.486;6.610;2023-02-05T05:08:33;34.93;;;14.87;;
3004;SDS011;1512;51.486;6.610;2023-02-05T05:12:41;33.30;;;17.03;;
3004;SDS011;1512;51.486;6.610;2023-02-05T05:16:50;37.30;;;17.70;;
3004;SDS011;1512;51.486;6.610;2023-02-05T05:20:59;31.87;;;20.50;;
3004;SDS011;1512;51.486;6.610;2023-02-05T05:25:08;39.63;;;17.83;;
3004;SDS011;1512;51.486;6.610;2023-02-05T05:29:16;29.80;;;16.27;;
3004;SDS011;1512;51.486;6.610;2023-02-05T05:33:25;28.90;;;15.83;;
3004;SDS011;1512;51.486;6.610;2023-02-05T05:37:34;36.10;;;15.93;;
3004;SDS011;1512;51.486;6.610;2023-02-05T05:41:42;42.63;;;20.00;;
3004;SDS011;1512;51.486;6.610;2023-02-05T05:46:08;30.87;;;18.23;;
3004;SDS011;1512;51.486;6.610;2023-02-05T05:50:17;35.73;;;18.17;;
3004;SDS011;1512;51.486;6.610;2023-02-05T05:54:26;38.37;;;17.87;;
3004;SDS011;1512;51.486;6.610;2023-02-05T05:58:34;40.93;;;18.87;;
3004;SDS011;1512;51.486;6.610;2023-02-05T06:02:43;28.30;;;16.50;;
3004;SDS011;1512;51.486;6.610;2023-02-05T06:06:52;25.87;;;15.80;;
3004;SDS011;1512;51.486;6.610;2023-02-05T06:11:00;28.07;;;16.23;;
3004;SDS011;1512;51.486;6.610;2023-02-05T06:15:09;27.30;;;18.40;;
3004;SDS011;1512;51.486;6.610;2023-02-05T06:19:18;33.00;;;15.70;;
3004;SDS011;1512;51.486;6.610;2023-02-05T06:23:26;26.40;;;15.00;;
3004;SDS011;1512;51.486;6.610;2023-02-05T06:27:35;26.30;;;14.17;;
3004;SDS011;1512;51.486;6.610;2023-02-05T06:31:43;27.30;;;14.80;;
3004;SDS011;1512;51.486;6.610;2023-02-05T06:35:52;19.90;;;13.10;;
3004;SDS011;1512;51.486;6.610;2023-02-05T06:40:01;21.30;;;13.40;;
3004;SDS011;1512;51.486;6.610;2023-02-05T06:44:09;19.33;;;11.63;;
3004;SDS011;1512;51.486;6.610;2023-02-05T06:48:18;25.30;;;13.30;;
3004;SDS011;1512;51.486;6.610;2023-02-05T06:52:26;31.07;;;15.57;;
3004;SDS011;1512;51.486;6.610;2023-02-05T06:56:35;32.00;;;12.87;;
3004;SDS011;1512;51.486;6.610;2023-02-05T07:00:44;20.90;;;13.63;;
3004;SDS011;1512;51.486;6.610;2023-02-05T07:04:52;23.60;;;12.47;;
3004;SDS011;1512;51.486;6.610;2023-02-05T07:09:01;17.50;;;11.40;;
3004;SDS011;1512;51.486;6.610;2023-02-05T07:13:09;21.63;;;13.40;;
3004;SDS011;1512;51.486;6.610;2023-02-05T07:17:18;17.90;;;11.53;;
3004;SDS011;1512;51.486;6.610;2023-02-05T07:21:27;18.20;;;11.10;;
3004;SDS011;1512;51.486;6.610;2023-02-05T07:25:35;19.43;;;10.70;;
3004;SDS011;1512;51.486;6.610;2023-02-05T07:29:44;13.73;;;8.93;;
3004;SDS011;1512;51.486;6.610;2023-02-05T07:33:53;21.03;;;9.10;;
3004;SDS011;1512;51.486;6.610;2023-02-05T07:38:02;12.70;;;9.40;;
3004;SDS011;1512;51.486;6.610;2023-02-05T07:42:10;18.13;;;9.30;;
3004;SDS011;1512;51.486;6.610;2023-02-05T07:46:19;16.40;;;9.37;;
3004;SDS011;1512;51.486;6.610;2023-02-05T07:50:29;15.50;;;9.30;;
3004;SDS011;1512;51.486;6.610;2023-02-05T07:54:37;12.87;;;9.07;;
3004;SDS011;1512;51.486;6.610;2023-02-05T07:58:46;11.37;;;7.37;;
3004;SDS011;1512;51.486;6.610;2023-02-05T08:02:55;11.30;;;7.00;;
3004;SDS011;1512;51.486;6.610;2023-02-05T08:07:03;5.50;;;3.45;;
3004;SDS011;1512;51.486;6.610;2023-02-05T08:11:13;3.80;;;2.87;;
3004;SDS011;1512;51.486;6.610;2023-02-05T08:15:22;5.50;;;2.90;;
3004;SDS011;1512;51.486;6.610;2023-02-05T08:19:32;2.10;;;1.90;;
3004;SDS011;1512;51.486;6.610;2023-02-05T08:23:40;3.43;;;2.03;;
3004;SDS011;1512;51.486;6.610;2023-02-05T08:27:49;1.70;;;1.60;;
3004;SDS011;1512;51.486;6.610;2023-02-05T08:31:58;1.87;;;1.77;;
3004;SDS011;1512;51.486;6.610;2023-02-05T08:36:13;1.97;;;1.87;;
3004;SDS011;1512;51.486;6.610;2023-02-05T08:40:21;2.80;;;1.87;;
3004;SDS011;1512;51.486;6.610;2023-02-05T08:44:30;2.47;;;1.90;;
3004;SDS011;1512;51.486;6.610;2023-02-05T08:48:39;1.80;;;1.63;;
3004;SDS011;1512;51.486;6.610;2023-02-05T08:52:48;4.90;;;2.40;;
3004;SDS011;1512;51.486;6.610;2023-02-05T08:56:57;4.78;;;2.30;;
3004;SDS011;1512;51.486;6.610;2023-02-05T09:01:09;2.23;;;1.87;;
3004;SDS011;1512;51.486;6.610;2023-02-05T09:05:20;1.73;;;1.63;;
3004;SDS011;1512;51.486;6.610;2023-02-05T09:09:30;5.03;;;2.30;;
3004;SDS011;1512;51.486;6.610;2023-02-05T09:13:41;3.63;;;1.87;;
3004;SDS011;1512;51.486;6.610;2023-02-05T09:17:49;5.07;;;2.20;;
3004;SDS011;1512;51.486;6.610;2023-02-05T09:21:58;6.30;;;2.40;;
3004;SDS011;1512;51.486;6.610;2023-02-05T09:26:06;2.40;;;2.13;;
3004;SDS011;1512;51.486;6.610;2023-02-05T09:30:15;7.80;;;3.13;;
3004;SDS011;1512;51.486;6.610;2023-02-05T09:34:24;8.27;;;2.17;;
3004;SDS011;1512;51.486;6.610;2023-02-05T09:38:32;2.20;;;2.00;;
3004;SDS011;1512;51.486;6.610;2023-02-05T09:42:43;6.60;;;2.57;;
3004;SDS011;1512;51.486;6.610;2023-02-05T09:51:37;9.83;;;2.17;;
3004;SDS011;1512;51.486;6.610;2023-02-05T09:55:43;5.87;;;2.70;;
3004;SDS011;1512;51.486;6.610;2023-02-05T09:59:53;5.93;;;2.23;;
3004;SDS011;1512;51.486;6.610;2023-02-05T10:04:02;2.65;;;2.10;;
3004;SDS011;1512;51.486;6.610;2023-02-05T10:12:44;3.37;;;1.93;;
3004;SDS011;1512;51.486;6.610;2023-02-05T10:21:27;6.83;;;3.00;;
3004;SDS011;1512;51.486;6.610;2023-02-05T10:26:03;10.60;;;2.87;;
3004;SDS011;1512;51.486;6.610;2023-02-05T10:30:26;2.85;;;1.98;;
3004;SDS011;1512;51.486;6.610;2023-02-05T10:34:45;2.77;;;2.47;;
3004;SDS011;1512;51.486;6.610;2023-02-05T10:39:12;3.77;;;1.93;;
3004;SDS011;1512;51.486;6.610;2023-02-05T10:52:09;2.70;;;1.83;;
3004;SDS011;1512;51.486;6.610;2023-02-05T10:56:19;5.07;;;3.00;;
3004;SDS011;1512;51.486;6.610;2023-02-05T11:00:28;4.73;;;2.67;;
3004;SDS011;1512;51.486;6.610;2023-02-05T11:04:44;2.40;;;2.20;;
3004;SDS011;1512;51.486;6.610;2023-02-05T11:09:00;2.83;;;2.57;;
3004;SDS011;1512;51.486;6.610;2023-02-05T11:13:15;2.93;;;2.57;;
3004;SDS011;1512;51.486;6.610;2023-02-05T11:17:32;7.43;;;3.03;;
3004;SDS011;1512;51.486;6.610;2023-02-05T11:21:50;6.60;;;3.53;;
3004;SDS011;1512;51.486;6.610;2023-02-05T11:26:07;7.50;;;3.30;;
3004;SDS011;1512;51.486;6.610;2023-02-05T11:30:33;4.53;;;2.63;;
3004;SDS011;1512;51.486;6.610;2023-02-05T11:34:45;5.67;;;2.50;;
3004;SDS011;1512;51.486;6.610;2023-02-05T11:38:54;4.10;;;2.67;;
3004;SDS011;1512;51.486;6.610;2023-02-05T11:43:05;10.80;;;2.60;;
3004;SDS011;1512;51.486;6.610;2023-02-05T11:47:28;8.90;;;2.63;;
3004;SDS011;1512;51.486;6.610;2023-02-05T11:51:43;9.63;;;2.23;;
3004;SDS011;1512;51.486;6.610;2023-02-05T11:55:54;4.33;;;2.40;;
3004;SDS011;1512;51.486;6.610;2023-02-05T12:04:22;3.80;;;2.17;;
3004;SDS011;1512;51.486;6.610;2023-02-05T12:08:40;7.57;;;2.73;;
3004;SDS011;1512;51.486;6.610;2023-02-05T12:12:56;10.10;;;3.07;;
3004;SDS011;1512;51.486;6.610;2023-02-05T12:35:02;6.03;;;3.30;;
3004;SDS011;1512;51.486;6.610;2023-02-05T12:43:38;13.50;;;2.50;;
3004;SDS011;1512;51.486;6.610;2023-02-05T12:47:52;3.53;;;2.80;;
3004;SDS011;1512;51.486;6.610;2023-02-05T12:56:40;4.57;;;2.50;;
3004;SDS011;1512;51.486;6.610;2023-02-05T13:00:52;7.83;;;3.60;;
3004;SDS011;1512;51.486;6.610;2023-02-05T13:05:14;9.88;;;2.83;;
3004;SDS011;1512;51.486;6.610;2023-02-05T13:09:46;2.67;;;1.77;;
3004;SDS011;1512;51.486;6.610;2023-02-05T13:14:01;4.03;;;3.30;;
3004;SDS011;1512;51.486;6.610;2023-02-05T13:18:16;3.67;;;2.37;;
3004;SDS011;1512;51.486;6.610;2023-02-05T13:22:31;10.73;;;3.27;;
3004;SDS011;1512;51.486;6.610;2023-02-05T13:27:01;2.80;;;2.60;;
3004;SDS011;1512;51.486;6.610;2023-02-05T13:31:42;3.37;;;2.20;;
3004;SDS011;1512;51.486;6.610;2023-02-05T13:35:54;9.23;;;2.23;;
3004;SDS011;1512;51.486;6.610;2023-02-05T13:49:30;11.57;;;3.40;;
3004;SDS011;1512;51.486;6.610;2023-02-05T13:53:53;7.50;;;3.40;;
3004;SDS011;1512;51.486;6.610;2023-02-05T14:02:45;4.67;;;2.20;;
3004;SDS011;1512;51.486;6.610;2023-02-05T14:06:56;6.20;;;2.30;;
3004;SDS011;1512;51.486;6.610;2023-02-05T14:11:14;4.30;;;2.60;;
3004;SDS011;1512;51.486;6.610;2023-02-05T14:15:23;13.20;;;3.27;;
3004;SDS011;1512;51.486;6.610;2023-02-05T14:28:41;10.97;;;3.30;;
3004;SDS011;1512;51.486;6.610;2023-02-05T14:37:00;4.83;;;3.10;;
3004;SDS011;1512;51.486;6.610;2023-02-05T14:41:13;4.07;;;2.90;;
3004;SDS011;1512;51.486;6.610;2023-02-05T14:45:25;7.00;;;3.37;;
3004;SDS011;1512;51.486;6.610;2023-02-05T14:49:35;8.53;;;3.10;;
3004;SDS011;1512;51.486;6.610;2023-02-05T14:53:52;16.60;;;2.87;;
3004;SDS011;1512;51.486;6.610;2023-02-05T14:58:04;8.60;;;2.70;;
3004;SDS011;1512;51.486;6.610;2023-02-05T15:07:05;8.93;;;3.30;;
3004;SDS011;1512;51.486;6.610;2023-02-05T15:20:26;6.70;;;3.47;;
3004;SDS011;1512;51.486;6.610;2023-02-05T15:24:32;4.97;;;2.90;;
3004;SDS011;1512;51.486;6.610;2023-02-05T15:28:46;10.40;;;3.37;;
3004;SDS011;1512;51.486;6.610;2023-02-05T15:33:00;9.60;;;3.83;;
3004;SDS011;1512;51.486;6.610;2023-02-05T15:37:20;8.47;;;4.07;;
3004;SDS011;1512;51.486;6.610;2023-02-05T15:41:40;7.63;;;3.57;;
3004;SDS011;1512;51.486;6.610;2023-02-05T15:45:44;15.83;;;3.40;;
3004;SDS011;1512;51.486;6.610;2023-02-05T15:49:54;13.33;;;3.73;;
3004;SDS011;1512;51.486;6.610;2023-02-05T15:54:06;4.97;;;2.80;;
3004;SDS011;1512;51.486;6.610;2023-02-05T15:58:15;27.03;;;3.97;;
3004;SDS011;1512;51.486;6.610;2023-02-05T16:02:27;3.50;;;3.20;;
3004;SDS011;1512;51.486;6.610;2023-02-05T16:06:37;7.40;;;3.13;;
3004;SDS011;1512;51.486;6.610;2023-02-05T16:10:52;13.57;;;3.50;;
3004;SDS011;1512;51.486;6.610;2023-02-05T16:15:12;10.77;;;3.70;;
3004;SDS011;1512;51.486;6.610;2023-02-05T16:24:01;10.23;;;2.90;;
3004;SDS011;1512;51.486;6.610;2023-02-05T16:32:38;9.03;;;3.70;;
3004;SDS011;1512;51.486;6.610;2023-02-05T16:36:50;5.47;;;2.80;;
3004;SDS011;1512;51.486;6.610;2023-02-05T16:41:15;13.43;;;3.87;;
3004;SDS011;1512;51.486;6.610;2023-02-05T16:45:24;19.37;;;3.00;;
3004;SDS011;1512;51.486;6.610;2023-02-05T16:49:34;9.43;;;4.00;;
3004;SDS011;1512;51.486;6.610;2023-02-05T16:53:47;6.13;;;3.30;;
3004;SDS011;1512;51.486;6.610;2023-02-05T16:58:01;11.03;;;3.87;;
3004;SDS011;1512;51.486;6.610;2023-02-05T17:02:13;12.77;;;6.83;;
3004;SDS011;1512;51.486;6.610;2023-02-05T17:06:22;8.67;;;4.10;;
3004;SDS011;1512;51.486;6.610;2023-02-05T17:10:31;9.40;;;3.00;;
3004;SDS011;1512;51.486;6.610;2023-02-05T17:14:58;7.03;;;3.53;;
3004;SDS011;1512;51.486;6.610;2023-02-05T17:19:21;8.53;;;3.67;;
3004;SDS011;1512;51.486;6.610;2023-02-05T17:23:29;11.43;;;2.60;;
3004;SDS011;1512;51.486;6.610;2023-02-05T17:27:37;4.10;;;3.10;;
3004;SDS011;1512;51.486;6.610;2023-02-05T17:31:48;13.93;;;3.80;;
3004;SDS011;1512;51.486;6.610;2023-02-05T17:35:56;8.80;;;3.03;;
3004;SDS011;1512;51.486;6.610;2023-02-05T17:40:05;16.73;;;3.63;;
3004;SDS011;1512;51.486;6.610;2023-02-05T17:44:14;11.47;;;3.50;;
3004;SDS011;1512;51.486;6.610;2023-02-05T17:48:23;4.87;;;3.50;;
3004;SDS011;1512;51.486;6.610;2023-02-05T17:52:32;8.57;;;4.20;;
3004;SDS011;1512;51.486;6.610;2023-02-05T17:56:40;8.90;;;3.60;;
3004;SDS011;1512;51.486;6.610;2023-02-05T18:00:50;13.37;;;3.33;;
3004;SDS011;1512;51.486;6.610;2023-02-05T18:05:00;8.63;;;3.30;;
3004;SDS011;1512;51.486;6.610;2023-02-05T18:09:09;7.97;;;3.47;;
3004;SDS011;1512;51.486;6.610;2023-02-05T18:13:18;8.80;;;4.23;;
3004;SDS011;1512;51.486;6.610;2023-02-05T18:17:27;7.50;;;3.53;;
3004;SDS011;1512;51.486;6.610;2023-02-05T18:21:36;5.90;;;4.10;;
3004;SDS011;1512;51.486;6.610;2023-02-05T18:25:45;17.10;;;4.40;;
3004;SDS011;1512;51.486;6.610;2023-02-05T18:29:53;17.10;;;4.43;;
3004;SDS011;1512;51.486;6.610;2023-02-05T18:34:02;6.33;;;3.90;;
3004;SDS011;1512;51.486;6.610;2023-02-05T18:38:13;6.60;;;3.53;;
3004;SDS011;1512;51.486;6.610;2023-02-05T18:42:22;7.40;;;3.53;;
3004;SDS011;1512;51.486;6.610;2023-02-05T18:46:30;9.03;;;3.63;;
3004;SDS011;1512;51.486;6.610;2023-02-05T18:50:40;9.47;;;4.00;;
3004;SDS011;1512;51.486;6.610;2023-02-05T18:54:49;12.80;;;3.73;;
3004;SDS011;1512;51.486;6.610;2023-02-05T18:58:59;24.63;;;4.07;;
3004;SDS011;1512;51.486;6.610;2023-02-05T19:03:11;8.10;;;3.70;;
3004;SDS011;1512;51.486;6.610;2023-02-05T19:07:19;5.60;;;3.43;;
3004;SDS011;1512;51.486;6.610;2023-02-05T19:11:30;15.53;;;3.80;;
3004;SDS011;1512;51.486;6.610;2023-02-05T19:15:39;6.97;;;3.67;;
3004;SDS011;1512;51.486;6.610;2023-02-05T19:19:48;11.13;;;4.57;;
3004;SDS011;1512;51.486;6.610;2023-02-05T19:23:58;6.97;;;4.00;;
3004;SDS011;1512;51.486;6.610;2023-02-05T19:28:09;8.87;;;3.13;;
3004;SDS011;1512;51.486;6.610;2023-02-05T19:32:18;14.60;;;3.50;;
3004;SDS011;1512;51.486;6.610;2023-02-05T19:36:27;13.50;;;4.30;;
3004;SDS011;1512;51.486;6.610;2023-02-05T19:40:36;7.67;;;3.63;;
3004;SDS011;1512;51.486;6.610;2023-02-05T19:44:45;8.30;;;4.00;;
3004;SDS011;1512;51.486;6.610;2023-02-05T19:48:54;12.93;;;4.27;;
3004;SDS011;1512;51.486;6.610;2023-02-05T19:53:05;16.07;;;4.63;;
3004;SDS011;1512;51.486;6.610;2023-02-05T19:57:13;15.03;;;4.00;;
3004;SDS011;1512;51.486;6.610;2023-02-05T20:01:29;12.53;;;5.33;;
3004;SDS011;1512;51.486;6.610;2023-02-05T20:05:38;6.93;;;3.33;;
3004;SDS011;1512;51.486;6.610;2023-02-05T20:09:47;23.13;;;6.13;;
3004;SDS011;1512;51.486;6.610;2023-02-05T20:13:58;22.87;;;4.60;;
3004;SDS011;1512;51.486;6.610;2023-02-05T20:18:07;15.33;;;4.67;;
3004;SDS011;1512;51.486;6.610;2023-02-05T20:22:15;19.13;;;4.50;;
3004;SDS011;1512;51.486;6.610;2023-02-05T20:26:25;12.23;;;4.60;;
3004;SDS011;1512;51.486;6.610;2023-02-05T20:30:34;22.30;;;5.20;;
3004;SDS011;1512;51.486;6.610;2023-02-05T20:35:00;17.57;;;4.27;;
3004;SDS011;1512;51.486;6.610;2023-02-05T20:39:09;13.30;;;3.20;;
3004;SDS011;1512;51.486;6.610;2023-02-05T20:43:17;8.93;;;3.70;;
3004;SDS011;1512;51.486;6.610;2023-02-05T20:47:26;5.90;;;3.20;;
3004;SDS011;1512;51.486;6.610;2023-02-05T20:51:35;7.80;;;3.73;;
3004;SDS011;1512;51.486;6.610;2023-02-05T20:55:43;7.80;;;4.77;;
3004;SDS011;1512;51.486;6.610;2023-02-05T20:59:52;11.03;;;4.77;;
3004;SDS011;1512;51.486;6.610;2023-02-05T21:04:02;9.00;;;3.50;;
3004;SDS011;1512;51.486;6.610;2023-02-05T21:08:12;15.10;;;5.50;;
3004;SDS011;1512;51.486;6.610;2023-02-05T21:12:20;13.80;;;5.03;;
3004;SDS011;1512;51.486;6.610;2023-02-05T21:16:31;13.57;;;4.60;;
3004;SDS011;1512;51.486;6.610;2023-02-05T21:20:41;17.73;;;4.93;;
3004;SDS011;1512;51.486;6.610;2023-02-05T21:24:52;23.43;;;4.97;;
3004;SDS011;1512;51.486;6.610;2023-02-05T21:29:03;11.57;;;4.20;;
3004;SDS011;1512;51.486;6.610;2023-02-05T21:33:12;15.67;;;5.73;;
3004;SDS011;1512;51.486;6.610;2023-02-05T21:37:21;19.67;;;5.00;;
3004;SDS011;1512;51.486;6.610;2023-02-05T21:41:30;14.63;;;3.90;;
3004;SDS011;1512;51.486;6.610;2023-02-05T21:45:38;10.03;;;4.17;;
3004;SDS011;1512;51.486;6.610;2023-02-05T21:49:47;17.03;;;5.33;;
3004;SDS011;1512;51.486;6.610;2023-02-05T21:53:57;14.87;;;4.30;;
3004;SDS011;1512;51.486;6.610;2023-02-05T21:58:06;11.27;;;4.10;;
3004;SDS011;1512;51.486;6.610;2023-02-05T22:02:15;13.77;;;3.77;;
3004;SDS011;1512;51.486;6.610;2023-02-05T22:06:25;14.10;;;3.80;;
3004;SDS011;1512;51.486;6.610;2023-02-05T22:10:35;7.23;;;4.20;;
3004;SDS011;1512;51.486;6.610;2023-02-05T22:14:44;8.43;;;3.70;;
3004;SDS011;1512;51.486;6.610;2023-02-05T22:18:55;9.70;;;4.60;;
3004;SDS011;1512;51.486;6.610;2023-02-05T22:23:04;11.73;;;4.57;;
3004;SDS011;1512;51.486;6.610;2023-02-05T22:27:13;13.13;;;4.20;;
3004;SDS011;1512;51.486;6.610;2023-02-05T22:31:21;16.70;;;6.53;;
3004;SDS011;1512;51.486;6.610;2023-02-05T22:35:31;9.57;;;4.77;;
3004;SDS011;1512;51.486;6.610;2023-02-05T22:39:40;17.63;;;4.87;;
3004;SDS011;1512;51.486;6.610;2023-02-05T22:43:49;9.30;;;4.37;;
3004;SDS011;1512;51.486;6.610;2023-02-05T22:47:57;14.53;;;5.10;;
3004;SDS011;1512;51.486;6.610;2023-02-05T22:52:06;19.93;;;4.50;;
3004;SDS011;1512;51.486;6.610;2023-02-05T22:56:15;13.80;;;3.77;;
3004;SDS011;1512;51.486;6.610;2023-02-05T23:00:24;6.77;;;3.90;;
3004;SDS011;1512;51.486;6.610;2023-02-05T23:04:33;9.47;;;4.70;;
3004;SDS011;1512;51.486;6.610;2023-02-05T23:08:42;22.53;;;5.53;;
3004;SDS011;1512;51.486;6.610;2023-02-05T23:12:51;11.87;;;3.93;;
3004;SDS011;1512;51.486;6.610;2023-02-05T23:16:59;10.17;;;4.63;;
3004;SDS011;1512;51.486;6.610;2023-02-05T23:21:12;19.03;;;4.10;;
3004;SDS011;1512;51.486;6.610;2023-02-05T23:25:23;21.20;;;6.90;;
3004;SDS011;1512;51.486;6.610;2023-02-05T23:29:31;14.45;;;5.65;;
3004;SDS011;1512;51.486;6.610;2023-02-05T23:33:40;28.73;;;5.37;;
3004;SDS011;1512;51.486;6.610;2023-02-05T23:37:49;12.67;;;4.70;;
3004;SDS011;1512;51.486;6.610;2023-02-05T23:42:00;7.83;;;3.87;;
3004;SDS011;1512;51.486;6.610;2023-02-05T23:46:11;9.47;;;4.63;;
3004;SDS011;1512;51.486;6.610;2023-02-05T23:50:20;22.07;;;4.80;;
3004;SDS011;1512;51.486;6.610;2023-02-05T23:54:29;6.70;;;3.70;;
3004;SDS011;1512;51.486;6.610;2023-02-05T23:58:37;12.70;;;4.10;;
